createdAt,value
2022-08-20T00:01:49.578Z,47.49
2022-08-20T00:02:49.430Z,47.58
2022-08-20T00:04:42.781Z,47.67
2022-08-20T00:05:42.764Z,47.67
2022-08-20T00:07:36.179Z,47.58
2022-08-20T00:08:36.101Z,47.49
2022-08-20T00:10:29.454Z,47.29
2022-08-20T00:11:29.437Z,47.10
2022-08-20T00:13:22.856Z,47.49
2022-08-20T00:14:22.777Z,47.19
2022-08-20T00:16:16.130Z,47.58
2022-08-20T00:17:16.114Z,47.58
2022-08-20T00:19:09.532Z,47.29
2022-08-20T00:20:09.454Z,47.10
2022-08-20T00:22:02.807Z,47.10
2022-08-20T00:23:05.260Z,47.19
2022-08-20T00:24:56.244Z,47.10
2022-08-20T00:25:56.132Z,47.19
2022-08-20T00:27:49.504Z,47.29
2022-08-20T00:28:49.473Z,47.00
2022-08-20T00:30:42.931Z,47.00
2022-08-20T00:31:42.816Z,47.29
2022-08-20T00:33:36.166Z,47.00
2022-08-20T00:34:36.166Z,46.91
2022-08-20T00:36:32.677Z,47.00
2022-08-20T00:37:29.498Z,47.00
2022-08-20T00:39:22.854Z,47.00
2022-08-20T00:40:23.290Z,46.81
2022-08-20T00:42:16.317Z,47.19
2022-08-20T00:43:16.179Z,47.39
2022-08-20T00:45:09.538Z,47.19
2022-08-20T00:46:09.522Z,47.00
2022-08-20T00:48:02.988Z,47.00
2022-08-20T00:49:02.858Z,47.00
2022-08-20T00:50:56.215Z,46.81
2022-08-20T00:51:56.199Z,47.19
2022-08-20T00:53:49.659Z,47.19
2022-08-20T00:54:49.546Z,47.10
2022-08-20T00:56:42.898Z,47.19
2022-08-20T00:57:56.763Z,47.19
2022-08-20T00:59:37.374Z,47.00
2022-08-20T01:00:37.219Z,47.29
2022-08-20T01:02:30.570Z,47.19
2022-08-20T01:03:30.556Z,47.19
2022-08-20T01:05:29.613Z,47.29
2022-08-20T01:06:24.671Z,47.29
2022-08-20T01:08:17.256Z,46.91
2022-08-20T01:09:17.243Z,47.19
2022-08-20T01:11:10.669Z,46.81
2022-08-20T01:12:11.355Z,46.91
2022-08-20T01:14:03.943Z,46.81
2022-08-20T01:15:03.930Z,47.19
2022-08-20T01:16:57.347Z,47.10
2022-08-20T01:17:57.444Z,47.10
2022-08-20T01:19:50.618Z,46.91
2022-08-20T01:20:50.606Z,47.10
2022-08-20T01:22:45.065Z,47.19
2022-08-20T01:23:44.943Z,47.10
2022-08-20T01:25:38.297Z,47.29
2022-08-20T01:26:39.057Z,47.10
2022-08-20T01:28:31.701Z,47.10
2022-08-20T01:29:31.622Z,46.91
2022-08-20T01:31:24.983Z,46.91
2022-08-20T01:32:24.967Z,46.71
2022-08-20T01:34:18.423Z,46.81
2022-08-20T01:35:18.311Z,46.81
2022-08-20T01:37:11.659Z,47.29
2022-08-20T01:38:11.648Z,46.91
2022-08-20T01:40:05.102Z,46.81
2022-08-20T01:41:04.984Z,46.81
2022-08-20T01:42:59.212Z,46.71
2022-08-20T01:43:58.681Z,46.91
2022-08-20T01:45:51.739Z,46.71
2022-08-20T01:46:51.667Z,46.81
2022-08-20T01:48:45.035Z,46.81
2022-08-20T01:49:45.022Z,46.91
2022-08-20T01:51:38.469Z,46.91
2022-08-20T01:52:38.360Z,46.81
2022-08-20T01:54:31.712Z,46.91
2022-08-20T01:55:31.697Z,46.71
2022-08-20T01:57:25.115Z,46.91
2022-08-20T01:58:25.037Z,46.71
2022-08-20T02:00:19.776Z,46.81
2022-08-20T02:01:18.431Z,46.71
2022-08-20T02:03:11.786Z,46.91
2022-08-20T02:04:15.355Z,46.91
2022-08-20T02:06:06.058Z,46.91
2022-08-20T02:07:06.047Z,46.91
2022-08-20T02:08:59.496Z,46.91
2022-08-20T02:09:59.383Z,47.00
2022-08-20T02:11:52.735Z,47.00
2022-08-20T02:12:53.001Z,46.81
2022-08-20T02:14:46.195Z,47.00
2022-08-20T02:15:46.059Z,47.00
2022-08-20T02:17:39.410Z,47.00
2022-08-20T02:18:39.396Z,46.71
2022-08-20T02:20:32.847Z,46.81
2022-08-20T02:21:32.736Z,46.81
2022-08-20T02:23:26.089Z,47.10
2022-08-20T02:24:26.078Z,46.91
2022-08-20T02:26:19.487Z,46.71
2022-08-20T02:27:19.411Z,46.62
2022-08-20T02:29:13.760Z,46.52
2022-08-20T02:30:20.000Z,47.00
2022-08-20T02:32:24.227Z,46.52
2022-08-20T02:33:07.177Z,46.71
2022-08-20T02:35:00.438Z,46.52
2022-08-20T02:36:00.425Z,46.71
2022-08-20T02:37:53.841Z,46.71
2022-08-20T02:38:53.760Z,46.81
2022-08-20T02:40:48.113Z,46.81
2022-08-20T02:41:48.096Z,46.91
2022-08-20T02:43:41.576Z,46.81
2022-08-20T02:44:41.440Z,46.71
2022-08-20T02:46:34.795Z,46.62
2022-08-20T02:47:34.784Z,46.52
2022-08-20T02:49:28.286Z,46.71
2022-08-20T02:50:28.128Z,46.81
2022-08-20T02:52:21.008Z,47.10
2022-08-20T02:53:20.993Z,46.71
2022-08-20T02:55:18.801Z,46.52
2022-08-20T02:56:14.330Z,46.71
2022-08-20T02:58:07.687Z,47.10
2022-08-20T02:59:07.673Z,46.91
2022-08-20T03:01:01.113Z,47.10
2022-08-20T03:02:01.342Z,46.62
2022-08-20T03:03:54.362Z,47.10
2022-08-20T03:04:54.346Z,47.10
2022-08-20T03:06:47.816Z,47.00
2022-08-20T03:07:47.686Z,47.00
2022-08-20T03:09:41.037Z,47.10
2022-08-20T03:10:41.025Z,46.62
2022-08-20T03:12:34.529Z,46.62
2022-08-20T03:13:34.364Z,46.71
2022-08-20T03:15:27.714Z,46.81
2022-08-20T03:16:27.698Z,46.62
2022-08-20T03:18:21.145Z,46.62
2022-08-20T03:19:21.036Z,46.62
2022-08-20T03:21:14.690Z,46.62
2022-08-20T03:22:14.382Z,46.62
2022-08-20T03:24:07.876Z,46.62
2022-08-20T03:25:07.719Z,46.62
2022-08-20T03:27:01.069Z,46.55
2022-08-20T03:28:01.300Z,46.62
2022-08-20T03:29:54.528Z,46.62
2022-08-20T03:30:54.393Z,46.71
2022-08-20T03:32:48.741Z,46.52
2022-08-20T03:33:52.954Z,46.62
2022-08-20T03:35:42.141Z,46.62
2022-08-20T03:36:42.068Z,46.52
2022-08-20T03:38:35.426Z,46.81
2022-08-20T03:39:35.456Z,46.52
2022-08-20T03:41:28.868Z,46.45
2022-08-20T03:42:28.749Z,46.52
2022-08-20T03:44:23.104Z,46.62
2022-08-20T03:45:23.089Z,46.62
2022-08-20T03:47:16.508Z,46.62
2022-08-20T03:48:16.427Z,46.71
2022-08-20T03:50:09.779Z,46.91
2022-08-20T03:51:09.767Z,46.73
2022-08-20T03:53:03.227Z,46.55
2022-08-20T03:54:03.114Z,46.81
2022-08-20T03:55:59.299Z,46.42
2022-08-20T03:56:56.456Z,46.71
2022-08-20T03:58:49.912Z,46.73
2022-08-20T03:59:54.855Z,46.83
2022-08-20T04:01:46.353Z,46.64
2022-08-20T04:02:43.130Z,46.64
2022-08-20T04:04:36.551Z,46.71
2022-08-20T04:05:36.471Z,46.64
2022-08-20T04:07:30.585Z,46.73
2022-08-20T04:08:29.812Z,46.64
2022-08-20T04:10:23.928Z,46.52
2022-08-20T04:11:23.150Z,46.81
2022-08-20T04:13:16.511Z,46.55
2022-08-20T04:14:18.465Z,46.64
2022-08-20T04:16:11.252Z,46.62
2022-08-20T04:17:09.834Z,46.81
2022-08-20T04:19:03.194Z,46.64
2022-08-20T04:20:03.179Z,46.55
2022-08-20T04:21:56.634Z,46.62
2022-08-20T04:22:59.185Z,46.62
2022-08-20T04:24:49.881Z,46.73
2022-08-20T04:25:49.866Z,46.62
2022-08-20T04:27:43.342Z,46.62
2022-08-20T04:28:43.204Z,46.83
2022-08-20T04:30:36.558Z,47.00
2022-08-20T04:31:36.546Z,46.71
2022-08-20T04:33:34.002Z,46.62
2022-08-20T04:34:29.883Z,46.62
2022-08-20T04:36:23.240Z,47.00
2022-08-20T04:37:23.224Z,46.71
2022-08-20T04:39:16.677Z,46.42
2022-08-20T04:40:16.562Z,46.62
2022-08-20T04:42:09.916Z,46.71
2022-08-20T04:43:09.903Z,46.52
2022-08-20T04:45:03.417Z,46.62
2022-08-20T04:46:03.242Z,46.62
2022-08-20T04:47:56.787Z,46.62
2022-08-20T04:48:56.593Z,46.62
2022-08-20T04:50:50.065Z,46.62
2022-08-20T04:51:49.935Z,47.10
2022-08-20T04:53:43.286Z,46.62
2022-08-20T04:54:43.273Z,46.62
2022-08-20T04:56:36.770Z,46.62
2022-08-20T04:57:36.610Z,46.62
2022-08-20T04:59:29.960Z,46.52
2022-08-20T05:00:29.949Z,47.10
2022-08-20T05:02:23.448Z,47.03
2022-08-20T05:03:23.288Z,46.62
2022-08-20T05:05:17.640Z,46.91
2022-08-20T05:06:17.623Z,46.64
2022-08-20T05:08:19.869Z,46.91
2022-08-20T05:09:11.964Z,46.71
2022-08-20T05:11:32.619Z,47.00
2022-08-20T05:12:06.317Z,47.12
2022-08-20T05:13:59.736Z,46.64
2022-08-20T05:14:59.654Z,46.71
2022-08-20T05:16:53.009Z,46.64
2022-08-20T05:17:52.995Z,46.73
2022-08-20T05:19:46.419Z,46.62
2022-08-20T05:20:46.340Z,46.62
2022-08-20T05:22:39.692Z,46.52
2022-08-20T05:23:39.677Z,46.52
2022-08-20T05:25:34.090Z,47.03
2022-08-20T05:26:34.017Z,47.00
2022-08-20T05:28:27.367Z,46.52
2022-08-20T05:29:27.353Z,46.64
2022-08-20T05:31:20.809Z,46.62
2022-08-20T05:32:20.700Z,46.52
2022-08-20T05:34:14.054Z,46.45
2022-08-20T05:35:14.031Z,46.42
2022-08-20T05:37:08.515Z,46.81
2022-08-20T05:38:08.378Z,46.62
2022-08-20T05:40:01.763Z,46.81
2022-08-20T05:41:01.717Z,46.55
2022-08-20T05:42:55.141Z,46.52
2022-08-20T05:43:55.057Z,46.71
2022-08-20T05:45:48.410Z,46.62
2022-08-20T05:46:48.392Z,46.62
2022-08-20T05:48:41.890Z,46.73
2022-08-20T05:49:41.732Z,46.81
2022-08-20T05:51:35.085Z,46.64
2022-08-20T05:52:35.068Z,46.55
2022-08-20T05:54:28.487Z,46.62
2022-08-20T05:55:28.405Z,46.52
2022-08-20T05:57:21.769Z,46.73
2022-08-20T05:58:21.754Z,46.71
2022-08-20T06:00:15.178Z,46.64
2022-08-20T06:01:15.159Z,46.83
2022-08-20T06:03:08.448Z,46.62
2022-08-20T06:04:08.433Z,46.71
2022-08-20T06:06:01.848Z,46.71
2022-08-20T06:07:01.769Z,46.81
2022-08-20T06:08:55.117Z,46.81
2022-08-20T06:09:55.106Z,46.52
2022-08-20T06:11:48.526Z,46.73
2022-08-20T06:12:48.442Z,46.81
2022-08-20T06:14:42.804Z,46.81
2022-08-20T06:15:42.788Z,46.73
2022-08-20T06:17:39.615Z,46.71
2022-08-20T06:18:36.126Z,46.71
2022-08-20T06:20:29.483Z,46.55
2022-08-20T06:21:29.464Z,46.71
2022-08-20T06:23:22.966Z,46.71
2022-08-20T06:24:22.805Z,46.81
2022-08-20T06:26:16.156Z,46.45
2022-08-20T06:27:16.151Z,46.73
2022-08-20T06:29:09.563Z,46.73
2022-08-20T06:30:09.480Z,46.71
2022-08-20T06:32:02.858Z,46.73
2022-08-20T06:33:02.817Z,46.62
2022-08-20T06:34:56.237Z,46.71
2022-08-20T06:35:56.155Z,46.71
2022-08-20T06:37:49.505Z,46.42
2022-08-20T06:38:49.492Z,46.73
2022-08-20T06:40:43.909Z,46.73
2022-08-20T06:41:43.830Z,46.73
2022-08-20T06:43:37.182Z,46.81
2022-08-20T06:44:37.168Z,46.52
2022-08-20T06:46:30.590Z,46.71
2022-08-20T06:47:30.510Z,46.52
2022-08-20T06:49:23.865Z,46.52
2022-08-20T06:50:23.854Z,46.81
2022-08-20T06:52:17.282Z,46.71
2022-08-20T06:53:17.193Z,46.62
2022-08-20T06:55:10.539Z,46.83
2022-08-20T06:56:10.526Z,46.55
2022-08-20T06:58:03.987Z,46.45
2022-08-20T06:59:03.867Z,46.52
2022-08-20T07:00:57.300Z,46.55
2022-08-20T07:01:57.221Z,46.71
2022-08-20T07:03:54.706Z,46.83
2022-08-20T07:04:50.563Z,46.71
2022-08-20T07:06:43.919Z,46.71
2022-08-20T07:07:43.901Z,46.73
2022-08-20T07:09:37.367Z,46.81
2022-08-20T07:10:37.242Z,46.71
2022-08-20T07:12:30.594Z,46.55
2022-08-20T07:13:30.580Z,46.71
2022-08-20T07:15:24.006Z,46.42
2022-08-20T07:16:23.921Z,46.71
2022-08-20T07:18:17.326Z,46.81
2022-08-20T07:19:17.313Z,46.81
2022-08-20T07:21:11.727Z,46.81
2022-08-20T07:22:11.650Z,46.73
2022-08-20T07:24:05.002Z,46.73
2022-08-20T07:25:04.987Z,46.55
2022-08-20T07:26:58.453Z,46.71
2022-08-20T07:27:58.335Z,46.71
2022-08-20T07:29:51.688Z,46.81
2022-08-20T07:30:56.075Z,46.71
2022-08-20T07:32:45.416Z,46.71
2022-08-20T07:33:45.008Z,46.71
2022-08-20T07:35:38.375Z,46.42
2022-08-20T07:36:38.358Z,46.83
2022-08-20T07:38:31.823Z,46.71
2022-08-20T07:39:31.696Z,46.62
2022-08-20T07:41:26.047Z,46.81
2022-08-20T07:42:26.036Z,46.81
2022-08-20T07:44:19.505Z,46.62
2022-08-20T07:45:19.372Z,46.71
2022-08-20T07:47:12.728Z,46.62
2022-08-20T07:48:12.715Z,46.62
2022-08-20T07:50:06.188Z,46.71
2022-08-20T07:51:06.056Z,46.62
2022-08-20T07:52:59.403Z,46.62
2022-08-20T07:53:59.389Z,46.62
2022-08-20T07:55:59.049Z,46.64
2022-08-20T07:56:52.737Z,46.55
2022-08-20T07:58:46.092Z,46.71
2022-08-20T07:59:46.076Z,46.62
2022-08-20T08:01:39.497Z,46.62
2022-08-20T08:02:39.416Z,46.62
2022-08-20T08:04:33.772Z,46.62
2022-08-20T08:05:33.755Z,46.62
2022-08-20T08:07:26.726Z,46.52
2022-08-20T08:08:26.615Z,46.62
2022-08-20T08:10:19.968Z,46.62
2022-08-20T08:11:19.954Z,46.62
2022-08-20T08:13:14.378Z,46.62
2022-08-20T08:14:14.298Z,46.62
2022-08-20T08:16:07.653Z,46.91
2022-08-20T08:17:07.640Z,46.52
2022-08-20T08:19:01.059Z,46.62
2022-08-20T08:20:00.976Z,46.81
2022-08-20T08:21:54.336Z,46.62
2022-08-20T08:22:54.322Z,46.62
2022-08-20T08:24:57.108Z,46.73
2022-08-20T08:25:47.660Z,46.42
2022-08-20T08:27:41.011Z,46.62
2022-08-20T08:28:40.997Z,46.81
2022-08-20T08:30:34.470Z,46.62
2022-08-20T08:31:34.337Z,46.91
2022-08-20T08:33:27.692Z,46.62
2022-08-20T08:34:27.674Z,46.62
2022-08-20T08:36:21.088Z,46.71
2022-08-20T08:37:21.012Z,46.62
2022-08-20T08:39:14.373Z,46.62
2022-08-20T08:40:14.452Z,46.62
2022-08-20T08:42:07.776Z,46.62
2022-08-20T08:43:07.698Z,46.62
2022-08-20T08:45:01.049Z,46.71
2022-08-20T08:46:01.035Z,46.62
2022-08-20T08:47:54.489Z,46.81
2022-08-20T08:48:54.374Z,46.52
2022-08-20T08:50:54.127Z,46.62
2022-08-20T08:51:47.240Z,46.64
2022-08-20T08:53:40.711Z,46.52
2022-08-20T08:54:40.575Z,46.71
2022-08-20T08:56:33.929Z,46.62
2022-08-20T08:57:33.913Z,46.52
2022-08-20T08:59:27.332Z,46.42
2022-08-20T09:00:27.256Z,46.71
2022-08-20T09:02:20.637Z,46.62
2022-08-20T09:03:20.595Z,46.71
2022-08-20T09:05:14.100Z,46.62
2022-08-20T09:06:13.940Z,46.52
2022-08-20T09:08:07.303Z,46.52
2022-08-20T09:09:07.306Z,46.62
2022-08-20T09:11:00.745Z,46.62
2022-08-20T09:12:00.619Z,46.62
2022-08-20T09:13:53.969Z,46.42
2022-08-20T09:14:53.955Z,46.52
2022-08-20T09:16:52.713Z,46.52
2022-08-20T09:17:47.301Z,46.62
2022-08-20T09:19:40.668Z,46.62
2022-08-20T09:20:40.653Z,46.62
2022-08-20T09:22:34.103Z,46.62
2022-08-20T09:23:33.991Z,46.52
2022-08-20T09:25:27.344Z,46.81
2022-08-20T09:26:29.130Z,46.52
2022-08-20T09:28:20.817Z,46.52
2022-08-20T09:29:20.678Z,46.71
2022-08-20T09:31:14.041Z,46.62
2022-08-20T09:32:14.030Z,46.71
2022-08-20T09:34:07.450Z,46.62
2022-08-20T09:35:09.485Z,46.42
2022-08-20T09:37:00.725Z,46.71
2022-08-20T09:38:00.709Z,46.62
2022-08-20T09:39:54.190Z,46.62
2022-08-20T09:40:54.048Z,46.62
2022-08-20T09:42:47.439Z,46.71
2022-08-20T09:43:47.425Z,46.52
2022-08-20T09:45:40.905Z,46.52
2022-08-20T09:46:40.768Z,46.62
2022-08-20T09:48:34.127Z,46.52
2022-08-20T09:49:34.109Z,46.52
2022-08-20T09:51:27.570Z,46.71
2022-08-20T09:52:27.447Z,46.52
2022-08-20T09:54:20.801Z,46.62
2022-08-20T09:55:20.785Z,46.62
2022-08-20T09:57:14.290Z,46.52
2022-08-20T09:58:14.130Z,46.52
2022-08-20T10:00:08.479Z,46.42
2022-08-20T10:01:13.912Z,46.81
2022-08-20T10:03:01.938Z,46.62
2022-08-20T10:04:01.803Z,46.62
2022-08-20T10:05:55.164Z,46.52
2022-08-20T10:06:55.149Z,46.52
2022-08-20T10:08:48.595Z,46.71
2022-08-20T10:09:48.486Z,46.52
2022-08-20T10:11:41.838Z,46.62
2022-08-20T10:12:41.830Z,46.52
2022-08-20T10:14:35.244Z,46.62
2022-08-20T10:15:35.165Z,46.62
2022-08-20T10:17:28.513Z,46.62
2022-08-20T10:18:28.497Z,46.62
2022-08-20T10:19:28.485Z,46.62
2022-08-20T10:20:28.475Z,46.71
2022-08-20T10:21:28.467Z,46.71
2022-08-20T10:22:28.458Z,46.91
2022-08-20T10:23:28.444Z,46.71
2022-08-20T10:24:28.433Z,46.71
2022-08-20T10:25:28.423Z,46.91
2022-08-20T10:26:28.414Z,46.71
2022-08-20T10:27:28.402Z,47.00
2022-08-20T10:28:28.392Z,46.52
2022-08-20T10:29:28.381Z,47.10
2022-08-20T10:30:28.372Z,46.52
2022-08-20T10:31:28.362Z,46.42
2022-08-20T10:32:28.349Z,46.42
2022-08-20T10:33:28.341Z,46.71
2022-08-20T10:34:28.330Z,46.52
2022-08-20T10:35:28.318Z,47.00
2022-08-20T10:36:28.308Z,46.52
2022-08-20T10:37:28.299Z,47.10
2022-08-20T10:38:28.287Z,46.91
2022-08-20T10:39:28.285Z,47.00
2022-08-20T10:40:28.269Z,46.91
2022-08-20T10:41:28.257Z,46.71
2022-08-20T10:42:28.245Z,46.91
2022-08-20T10:43:28.236Z,46.91
2022-08-20T10:44:28.226Z,47.10
2022-08-20T10:45:28.213Z,46.91
2022-08-20T10:46:28.207Z,47.29
2022-08-20T10:47:28.192Z,46.91
2022-08-20T10:48:28.186Z,46.91
2022-08-20T10:49:28.172Z,46.81
2022-08-20T10:50:30.240Z,47.19
2022-08-20T10:51:32.749Z,46.91
2022-08-20T10:52:28.141Z,47.19
2022-08-20T10:53:28.130Z,47.19
2022-08-20T10:54:28.119Z,47.19
2022-08-20T10:55:28.108Z,46.81
2022-08-20T10:56:28.099Z,47.00
2022-08-20T10:57:28.090Z,46.91
2022-08-20T10:58:37.537Z,47.29
2022-08-20T10:59:28.066Z,47.29
2022-08-20T11:00:28.057Z,46.81
2022-08-20T11:01:31.417Z,46.81
2022-08-20T11:02:28.899Z,46.91
2022-08-20T11:03:28.025Z,46.81
2022-08-20T11:04:28.015Z,47.19
2022-08-20T11:05:28.005Z,46.91
2022-08-20T11:06:27.995Z,46.81
2022-08-20T11:07:54.988Z,46.91
2022-08-20T11:08:34.191Z,47.29
2022-08-20T11:09:27.962Z,47.29
2022-08-20T11:10:27.955Z,46.91
2022-08-20T11:11:27.941Z,47.29
2022-08-20T11:12:27.931Z,47.19
2022-08-20T11:13:27.929Z,47.19
2022-08-20T11:14:27.910Z,47.00
2022-08-20T11:15:27.901Z,47.00
2022-08-20T11:16:27.888Z,47.29
2022-08-20T11:17:27.878Z,47.19
2022-08-20T11:18:27.869Z,47.29
2022-08-20T11:19:27.859Z,47.29
2022-08-20T11:20:27.847Z,47.29
2022-08-20T11:21:27.838Z,47.19
2022-08-20T11:22:27.827Z,47.00
2022-08-20T11:23:27.816Z,47.39
2022-08-20T11:24:27.807Z,47.19
2022-08-20T11:25:27.794Z,47.19
2022-08-20T11:26:27.785Z,47.19
2022-08-20T11:27:27.774Z,47.19
2022-08-20T11:28:31.404Z,47.10
2022-08-20T11:29:32.141Z,47.00
2022-08-20T11:30:27.743Z,47.29
2022-08-20T11:31:27.733Z,47.29
2022-08-20T11:32:27.722Z,47.00
2022-08-20T11:33:27.711Z,47.19
2022-08-20T11:34:27.705Z,46.81
2022-08-20T11:35:48.380Z,47.00
2022-08-20T11:36:27.679Z,47.19
2022-08-20T11:37:27.670Z,47.19
2022-08-20T11:38:27.659Z,47.00
2022-08-20T11:39:27.647Z,47.29
2022-08-20T11:40:27.692Z,47.19
2022-08-20T11:41:27.627Z,47.49
2022-08-20T11:42:27.616Z,47.29
2022-08-20T11:43:27.605Z,47.00
2022-08-20T11:44:27.597Z,47.00
2022-08-20T11:45:27.589Z,47.19
2022-08-20T11:46:28.684Z,47.00
2022-08-20T11:47:27.567Z,47.29
2022-08-20T11:48:27.553Z,47.58
2022-08-20T11:49:27.544Z,47.67
2022-08-20T11:50:27.533Z,47.19
2022-08-20T11:51:27.522Z,47.67
2022-08-20T11:52:27.511Z,47.58
2022-08-20T11:53:27.500Z,47.29
2022-08-20T11:54:27.492Z,47.67
2022-08-20T11:55:28.593Z,47.67
2022-08-20T11:56:27.469Z,47.58
2022-08-20T11:57:27.461Z,47.58
2022-08-20T11:58:27.449Z,47.67
2022-08-20T11:59:27.440Z,47.58
2022-08-20T12:00:32.087Z,47.58
2022-08-20T12:01:27.416Z,47.58
2022-08-20T12:02:27.451Z,47.58
2022-08-20T12:03:27.396Z,47.49
2022-08-20T12:04:27.385Z,47.67
2022-08-20T12:05:27.426Z,47.67
2022-08-20T12:06:27.365Z,47.49
2022-08-20T12:07:27.356Z,47.67
2022-08-20T12:08:28.245Z,47.58
2022-08-20T12:09:27.334Z,47.58
2022-08-20T12:10:27.325Z,47.58
2022-08-20T12:11:27.312Z,47.58
2022-08-20T12:12:27.304Z,47.58
2022-08-20T12:13:30.989Z,47.67
2022-08-20T12:14:27.282Z,47.67
2022-08-20T12:15:27.271Z,47.58
2022-08-20T12:16:27.261Z,47.58
2022-08-20T12:17:27.249Z,47.58
2022-08-20T12:18:27.246Z,47.58
2022-08-20T12:19:27.228Z,47.49
2022-08-20T12:20:27.218Z,47.67
2022-08-20T12:21:31.953Z,47.19
2022-08-20T12:22:27.199Z,47.10
2022-08-20T12:23:27.186Z,47.67
2022-08-20T12:24:27.175Z,47.19
2022-08-20T12:25:27.170Z,47.19
2022-08-20T12:26:27.155Z,47.58
2022-08-20T12:27:27.143Z,47.39
2022-08-20T12:28:27.134Z,47.39
2022-08-20T12:29:27.124Z,47.49
2022-08-20T12:30:27.114Z,47.39
2022-08-20T12:31:27.103Z,47.49
2022-08-20T12:32:27.094Z,47.39
2022-08-20T12:33:27.080Z,47.39
2022-08-20T12:34:27.072Z,47.39
2022-08-20T12:35:27.061Z,47.39
2022-08-20T12:36:27.051Z,47.49
2022-08-20T12:37:27.039Z,47.58
2022-08-20T12:38:27.028Z,48.06
2022-08-20T12:39:27.018Z,48.06
2022-08-20T12:40:32.268Z,47.67
2022-08-20T12:41:26.997Z,47.49
2022-08-20T12:42:26.988Z,48.06
2022-08-20T12:43:26.976Z,47.49
2022-08-20T12:44:26.967Z,47.49
2022-08-20T12:45:26.955Z,47.49
2022-08-20T12:46:26.945Z,47.97
2022-08-20T12:47:26.934Z,47.67
2022-08-20T12:48:26.924Z,47.87
2022-08-20T12:49:26.913Z,47.77
2022-08-20T12:50:31.264Z,47.77
2022-08-20T12:51:26.891Z,47.97
2022-08-20T12:52:26.882Z,47.29
2022-08-20T12:53:26.871Z,47.29
2022-08-20T12:54:26.860Z,47.97
2022-08-20T12:55:26.849Z,47.77
2022-08-20T12:56:26.841Z,47.29
2022-08-20T12:57:26.831Z,47.29
2022-08-20T12:58:26.819Z,47.29
2022-08-20T12:59:26.807Z,47.29
2022-08-20T13:00:26.809Z,47.39
2022-08-20T13:01:26.836Z,47.87
2022-08-20T13:02:26.779Z,47.49
2022-08-20T13:03:26.766Z,48.06
2022-08-20T13:04:26.757Z,47.58
2022-08-20T13:05:26.745Z,47.97
2022-08-20T13:06:26.734Z,47.39
2022-08-20T13:07:26.724Z,47.49
2022-08-20T13:08:26.715Z,47.49
2022-08-20T13:09:26.703Z,47.39
2022-08-20T13:10:26.692Z,47.67
2022-08-20T13:11:26.682Z,47.29
2022-08-20T13:12:26.673Z,47.39
2022-08-20T13:13:26.661Z,47.58
2022-08-20T13:14:26.653Z,47.49
2022-08-20T13:15:26.639Z,47.49
2022-08-20T13:16:26.630Z,47.49
2022-08-20T13:17:38.370Z,47.49
2022-08-20T13:18:26.609Z,47.58
2022-08-20T13:19:26.598Z,47.58
2022-08-20T13:20:26.588Z,47.39
2022-08-20T13:21:26.618Z,47.49
2022-08-20T13:22:26.569Z,47.39
2022-08-20T13:23:26.555Z,47.49
2022-08-20T13:24:26.545Z,47.58
2022-08-20T13:25:26.536Z,47.39
2022-08-20T13:26:26.525Z,47.58
2022-08-20T13:27:26.515Z,47.58
2022-08-20T13:28:26.505Z,47.58
2022-08-20T13:29:26.494Z,47.67
2022-08-20T13:30:26.482Z,47.67
2022-08-20T13:31:26.471Z,47.49
2022-08-20T13:32:26.461Z,47.67
2022-08-20T13:33:26.452Z,47.67
2022-08-20T13:34:26.441Z,47.49
2022-08-20T13:35:26.429Z,47.49
2022-08-20T13:36:26.420Z,47.58
2022-08-20T13:37:26.409Z,47.49
2022-08-20T13:38:26.400Z,47.67
2022-08-20T13:39:26.389Z,47.49
2022-08-20T13:40:26.377Z,47.67
2022-08-20T13:41:26.368Z,47.58
2022-08-20T13:42:26.359Z,47.49
2022-08-20T13:43:26.346Z,47.58
2022-08-20T13:44:31.347Z,47.58
2022-08-20T13:45:26.325Z,47.58
2022-08-20T13:46:26.316Z,47.87
2022-08-20T13:47:26.302Z,47.58
2022-08-20T13:48:26.294Z,47.87
2022-08-20T13:49:26.282Z,47.58
2022-08-20T13:50:26.273Z,47.87
2022-08-20T13:51:27.712Z,47.67
2022-08-20T13:52:26.251Z,47.87
2022-08-20T13:53:26.247Z,47.49
2022-08-20T13:54:30.254Z,47.39
2022-08-20T13:55:26.224Z,47.39
2022-08-20T13:56:26.213Z,47.39
2022-08-20T13:57:26.200Z,47.58
2022-08-20T13:58:26.191Z,47.77
2022-08-20T13:59:26.180Z,47.58
2022-08-20T14:00:28.102Z,47.58
2022-08-20T14:01:26.289Z,47.58
2022-08-20T14:02:26.151Z,47.49
2022-08-20T14:03:26.136Z,47.58
2022-08-20T14:04:26.128Z,47.77
2022-08-20T14:05:26.115Z,47.87
2022-08-20T14:06:26.105Z,47.49
2022-08-20T14:07:31.484Z,47.87
2022-08-20T14:08:26.083Z,47.87
2022-08-20T14:09:26.072Z,47.58
2022-08-20T14:10:26.066Z,47.58
2022-08-20T14:11:26.069Z,47.58
2022-08-20T14:12:26.041Z,47.58
2022-08-20T14:13:26.032Z,47.87
2022-08-20T14:14:26.022Z,47.97
2022-08-20T14:15:26.009Z,47.87
2022-08-20T14:16:27.400Z,47.87
2022-08-20T14:17:25.991Z,47.77
2022-08-20T14:18:25.982Z,47.58
2022-08-20T14:19:25.971Z,47.97
2022-08-20T14:20:25.957Z,47.97
2022-08-20T14:21:25.947Z,47.85
2022-08-20T14:22:25.937Z,47.58
2022-08-20T14:23:25.925Z,47.87
2022-08-20T14:24:25.915Z,48.06
2022-08-20T14:25:25.904Z,47.87
2022-08-20T14:26:25.894Z,47.77
2022-08-20T14:27:30.675Z,47.97
2022-08-20T14:28:25.873Z,47.87
2022-08-20T14:29:25.866Z,47.87
2022-08-20T14:30:25.852Z,47.87
2022-08-20T14:31:25.841Z,47.87
2022-08-20T14:32:25.831Z,47.87
2022-08-20T14:33:25.823Z,47.97
2022-08-20T14:34:25.810Z,47.97
2022-08-20T14:35:25.799Z,47.87
2022-08-20T14:36:25.790Z,47.77
2022-08-20T14:37:25.780Z,47.67
2022-08-20T14:38:25.769Z,47.77
2022-08-20T14:39:25.757Z,48.25
2022-08-20T14:40:25.746Z,48.35
2022-08-20T14:41:25.738Z,47.87
2022-08-20T14:42:25.726Z,48.35
2022-08-20T14:43:25.714Z,48.25
2022-08-20T14:44:25.706Z,48.06
2022-08-20T14:45:25.695Z,48.16
2022-08-20T14:46:25.685Z,48.35
2022-08-20T14:47:25.677Z,48.25
2022-08-20T14:48:25.662Z,48.25
2022-08-20T14:49:25.653Z,48.25
2022-08-20T14:50:25.641Z,47.87
2022-08-20T14:51:25.633Z,48.25
2022-08-20T14:52:28.102Z,47.87
2022-08-20T14:53:25.611Z,47.87
2022-08-20T14:54:25.600Z,48.35
2022-08-20T14:55:25.591Z,47.97
2022-08-20T14:56:25.579Z,48.44
2022-08-20T14:57:25.568Z,48.06
2022-08-20T14:58:25.558Z,48.06
2022-08-20T14:59:25.547Z,48.35
2022-08-20T15:00:25.536Z,47.97
2022-08-20T15:01:25.552Z,48.25
2022-08-20T15:02:25.517Z,48.06
2022-08-20T15:03:25.509Z,47.97
2022-08-20T15:04:25.629Z,48.06
2022-08-20T15:05:25.483Z,48.16
2022-08-20T15:06:25.474Z,47.97
2022-08-20T15:07:25.467Z,48.16
2022-08-20T15:08:28.809Z,48.25
2022-08-20T15:09:25.443Z,48.25
2022-08-20T15:10:25.431Z,48.16
2022-08-20T15:11:25.419Z,48.35
2022-08-20T15:12:25.411Z,48.35
2022-08-20T15:13:25.400Z,48.16
2022-08-20T15:14:25.388Z,48.25
2022-08-20T15:15:25.387Z,48.16
2022-08-20T15:16:25.371Z,48.16
2022-08-20T15:17:25.358Z,48.16
2022-08-20T15:18:25.347Z,48.16
2022-08-20T15:19:25.336Z,48.06
2022-08-20T15:20:25.341Z,47.87
2022-08-20T15:21:25.313Z,47.87
2022-08-20T15:22:25.305Z,48.25
2022-08-20T15:23:25.294Z,47.97
2022-08-20T15:24:25.307Z,47.87
2022-08-20T15:25:25.272Z,47.97
2022-08-20T15:26:25.265Z,48.25
2022-08-20T15:27:25.251Z,47.97
2022-08-20T15:28:25.244Z,47.97
2022-08-20T15:29:25.231Z,47.94
2022-08-20T15:30:25.221Z,48.23
2022-08-20T15:31:25.208Z,47.97
2022-08-20T15:32:25.201Z,47.97
2022-08-20T15:33:25.192Z,47.97
2022-08-20T15:34:25.179Z,48.16
2022-08-20T15:35:25.167Z,48.25
2022-08-20T15:36:25.156Z,48.25
2022-08-20T15:37:25.147Z,48.25
2022-08-20T15:38:25.137Z,48.16
2022-08-20T15:39:25.124Z,48.25
2022-08-20T15:40:28.215Z,47.94
2022-08-20T15:41:25.103Z,47.97
2022-08-20T15:42:25.095Z,48.33
2022-08-20T15:43:25.083Z,47.94
2022-08-20T15:44:25.074Z,47.97
2022-08-20T15:45:25.061Z,47.97
2022-08-20T15:46:27.809Z,47.97
2022-08-20T15:47:25.042Z,48.25
2022-08-20T15:48:25.030Z,48.06
2022-08-20T15:49:25.022Z,48.23
2022-08-20T15:50:25.011Z,48.35
2022-08-20T15:51:24.999Z,47.94
2022-08-20T15:52:24.988Z,48.25
2022-08-20T15:53:24.978Z,48.03
2022-08-20T15:54:24.974Z,47.94
2022-08-20T15:55:24.957Z,48.16
2022-08-20T15:56:24.946Z,48.23
2022-08-20T15:57:24.934Z,48.06
2022-08-20T15:58:24.925Z,48.23
2022-08-20T15:59:24.915Z,48.25
2022-08-20T16:00:24.904Z,47.97
2022-08-20T16:01:25.668Z,48.16
2022-08-20T16:02:25.975Z,48.16
2022-08-20T16:03:24.872Z,47.97